Time;durP1;ratioP1;P1;durP2;ratioP2;P2;SDS_P1;SDS_P2;PMS_P1;PMS_P2;Temp;Humidity;BMP_temperature;BMP_pressure;BME280_temperature;BME280_humidity;BME280_pressure;Samples;Min_cycle;Max_cycle;Signal;HPM_P1;HPM_P2
2022/03/02 00:03:00;;;;;;;36.10;15.30;;;;;;;-2.93;69.04;101372.98;103085;1294;60115;-71
2022/03/02 00:05:51;;;;;;;43.30;17.30;;;;;;;-2.97;68.86;101371.59;102380;1294;1003101;-72
2022/03/02 00:08:40;;;;;;;31.60;13.50;;;;;;;-3.01;69.55;101372.98;102981;1293;72006;-72
2022/03/02 00:11:29;;;;;;;34.80;14.60;;;;;;;-3.03;69.61;101369.17;102962;1293;68460;-71
2022/03/02 00:14:18;;;;;;;36.80;14.60;;;;;;;-3.07;69.60;101364.66;103005;1294;72172;-71
2022/03/02 00:17:07;;;;;;;41.20;16.90;;;;;;;-3.12;69.57;101362.74;103041;1287;59835;-71
2022/03/02 00:19:56;;;;;;;49.10;19.30;;;;;;;-3.15;69.86;101361.02;103410;1287;60692;-72
2022/03/02 00:22:45;;;;;;;43.30;17.90;;;;;;;-3.18;69.76;101358.06;103506;1287;73252;-71
2022/03/02 00:25:34;;;;;;;42.70;17.50;;;;;;;-3.20;69.99;101358.59;102846;1287;1003894;-71
2022/03/02 00:28:24;;;;;;;43.80;17.60;;;;;;;-3.22;70.22;101356.33;102678;1287;1003027;-71
2022/03/02 00:31:13;;;;;;;42.80;17.80;;;;;;;-3.21;70.38;101359.63;103742;1288;59658;-71
2022/03/02 00:34:05;;;;;;;42.70;18.30;;;;;;;-3.22;70.66;101358.41;103752;1287;59589;-72
2022/03/02 00:36:54;;;;;;;46.20;18.30;;;;;;;-3.22;70.88;101353.02;103365;1287;70704;-72
2022/03/02 00:39:44;;;;;;;46.50;18.80;;;;;;;-3.23;70.71;101351.46;103379;1288;68083;-72
2022/03/02 00:42:33;;;;;;;43.40;18.00;;;;;;;-3.29;71.06;101347.13;103621;1288;73047;-71
2022/03/02 00:45:31;;;;;;;42.00;16.60;;;;;;;-3.31;71.32;101349.39;102156;1293;1003808;-73
2022/03/02 00:48:22;;;;;;;40.30;15.10;;;;;;;-3.35;71.53;101348.52;102485;1291;1003664;-71
2022/03/02 00:51:14;;;;;;;38.60;15.60;;;;;;;-3.37;71.74;101351.98;102963;1291;73051;-72
2022/03/02 00:54:03;;;;;;;40.30;15.20;;;;;;;-3.39;71.75;101346.09;102383;1291;1003591;-71
2022/03/02 00:56:52;;;;;;;37.20;15.00;;;;;;;-3.41;72.12;101342.27;102782;1293;73182;-72
2022/03/02 00:59:41;;;;;;;31.70;13.60;;;;;;;-3.44;72.15;101339.48;102163;1293;1003010;-71
2022/03/02 01:02:32;;;;;;;41.20;15.80;;;;;;;-3.45;72.43;101340.00;102649;1293;59634;-72
2022/03/02 01:05:24;;;;;;;35.50;13.80;;;;;;;-3.45;72.96;101334.80;102902;1294;72310;-72
2022/03/02 01:08:13;;;;;;;34.40;14.00;;;;;;;-3.44;72.85;101334.29;102687;1294;67089;-71
2022/03/02 01:11:05;;;;;;;24.40;10.10;;;;;;;-3.45;72.68;101325.27;101930;1294;1003478;-71
2022/03/02 01:13:54;;;;;;;33.70;12.90;;;;;;;-3.44;73.20;101324.73;102656;1293;60350;-71
2022/03/02 01:16:46;;;;;;;31.40;12.30;;;;;;;-3.42;73.44;101316.23;103105;1290;60300;-71
2022/03/02 01:19:36;;;;;;;30.30;12.60;;;;;;;-3.39;72.75;101316.92;102343;1291;1002904;-70
2022/03/02 01:22:25;;;;;;;30.20;11.80;;;;;;;-3.40;73.29;101313.63;103160;1290;66923;-71
2022/03/02 01:25:14;;;;;;;28.50;11.80;;;;;;;-3.39;72.87;101306.69;103223;1291;72427;-71
2022/03/02 01:28:04;;;;;;;28.60;12.20;;;;;;;-3.39;73.01;101308.77;103377;1290;59726;-71
2022/03/02 01:30:53;;;;;;;35.10;15.10;;;;;;;-3.40;73.30;101307.38;102378;1290;1003967;-70
2022/03/02 01:33:44;;;;;;;39.00;17.40;;;;;;;-3.39;72.91;101307.55;102286;1290;1003015;-70
2022/03/02 01:36:34;;;;;;;35.50;15.30;;;;;;;-3.36;73.14;101306.00;103696;1287;67320;-71
2022/03/02 01:39:24;;;;;;;32.70;14.10;;;;;;;-3.32;73.22;101302.17;103398;1288;73673;-71
2022/03/02 01:42:14;;;;;;;32.60;14.00;;;;;;;-3.28;73.27;101300.60;103544;1288;59700;-70
2022/03/02 01:45:07;;;;;;;30.50;11.60;;;;;;;-3.22;73.02;101294.00;103441;1287;60740;-70
2022/03/02 01:48:04;;;;;;;29.60;12.20;;;;;;;-3.17;72.90;101287.05;103604;1288;73106;-70
2022/03/02 01:50:54;;;;;;;31.00;12.20;;;;;;;-3.12;72.72;101284.08;103549;1288;68221;-70
2022/03/02 01:53:45;;;;;;;26.90;10.60;;;;;;;-3.09;72.32;101287.21;103667;1287;70293;-70
2022/03/02 01:56:38;;;;;;;26.30;11.60;;;;;;;-3.06;72.54;101279.38;103319;1287;59786;-71
2022/03/02 01:59:26;;;;;;;28.90;11.60;;;;;;;-3.07;72.16;101267.59;103577;1288;60633;-72
2022/03/02 02:02:16;;;;;;;28.30;11.50;;;;;;;-3.02;72.09;101273.48;103502;1287;71800;-71
2022/03/02 02:05:07;;;;;;;23.20;10.20;;;;;;;-3.01;71.64;101274.34;103491;1288;68182;-71
2022/03/02 02:08:07;;;;;;;23.40;9.70;;;;;;;-2.99;71.67;101272.08;103548;1287;71553;-72
2022/03/02 02:10:59;;;;;;;22.90;9.40;;;;;;;-3.00;71.49;101266.01;102618;1287;1003442;-72
2022/03/02 02:13:49;;;;;;;28.60;9.90;;;;;;;-3.00;71.75;101261.33;102929;1287;1003063;-72
2022/03/02 02:16:38;;;;;;;30.60;11.50;;;;;;;-3.00;71.64;101260.11;103420;1288;73441;-69
2022/03/02 02:19:27;;;;;;;24.30;10.00;;;;;;;-3.02;71.37;101256.80;103454;1288;66914;-70
2022/03/02 02:22:17;;;;;;;28.40;11.00;;;;;;;-3.02;71.35;101259.92;103582;1287;72170;-69
2022/03/02 02:25:07;;;;;;;24.30;10.00;;;;;;;-3.02;71.26;101256.45;103609;1287;59805;-70
2022/03/02 02:27:56;;;;;;;26.60;11.10;;;;;;;-3.03;71.65;101255.25;104100;1287;60506;-70
2022/03/02 02:30:46;;;;;;;25.10;11.80;;;;;;;-3.04;71.17;101250.56;103968;1287;73434;-72
2022/03/02 02:33:35;;;;;;;22.10;9.90;;;;;;;-3.04;71.50;101250.91;104246;1288;67026;-72
2022/03/02 02:36:25;;;;;;;26.30;11.30;;;;;;;-3.07;71.76;101242.23;104523;1287;72131;-72
2022/03/02 02:39:14;;;;;;;26.10;11.10;;;;;;;-3.07;71.81;101242.58;104834;1287;59819;-71
2022/03/02 02:42:06;;;;;;;26.60;11.50;;;;;;;-3.08;71.51;101242.59;103798;1287;1016615;-71
2022/03/02 02:44:56;;;;;;;27.00;11.40;;;;;;;-3.08;71.58;101245.35;103920;1288;1002963;-71
2022/03/02 02:47:50;;;;;;;29.30;12.90;;;;;;;-3.07;71.80;101246.04;104706;1287;66658;-71
2022/03/02 02:50:43;;;;;;;28.20;11.90;;;;;;;-3.04;71.74;101242.58;104662;1287;70086;-71
2022/03/02 02:53:33;;;;;;;28.70;12.20;;;;;;;-3.02;71.56;101244.65;104609;1287;59690;-71
2022/03/02 02:56:22;;;;;;;28.70;12.70;;;;;;;-2.99;71.88;101239.42;104105;1287;60350;-71
2022/03/02 02:59:11;;;;;;;28.70;12.00;;;;;;;-2.96;71.83;101233.33;104704;1287;72171;-70
2022/03/02 03:02:01;;;;;;;29.10;12.00;;;;;;;-2.94;71.57;101228.82;104441;1287;67040;-71
2022/03/02 03:04:50;;;;;;;31.60;12.10;;;;;;;-2.93;71.52;101232.64;104694;1287;70692;-72
2022/03/02 03:07:42;;;;;;;22.40;9.80;;;;;;;-2.91;71.72;101231.59;104743;1287;59691;-71
2022/03/02 03:10:32;;;;;;;26.40;10.40;;;;;;;-2.90;71.70;101224.98;104705;1287;59675;-72
2022/03/02 03:13:24;;;;;;;24.10;10.50;;;;;;;-2.89;71.67;101226.02;104960;1287;73878;-71
2022/03/02 03:16:14;;;;;;;24.00;10.80;;;;;;;-2.90;71.44;101224.46;105362;1288;66770;-71
2022/03/02 03:19:03;;;;;;;26.40;11.30;;;;;;;-2.91;71.44;101218.39;105069;1287;71063;-71
2022/03/02 03:21:53;;;;;;;22.40;9.80;;;;;;;-2.93;71.45;101217.36;105719;1288;59553;-73
2022/03/02 03:24:43;;;;;;;24.20;10.00;;;;;;;-2.95;71.30;101214.58;105448;1287;60765;-72
2022/03/02 03:27:32;;;;;;;24.00;11.00;;;;;;;-2.97;71.76;101216.66;104925;1287;73302;-73
2022/03/02 03:30:26;;;;;;;27.50;11.70;;;;;;;-3.02;71.13;101220.16;104378;1287;1003440;-74
2022/03/02 03:33:15;;;;;;;22.10;10.30;;;;;;;-3.05;71.67;101214.95;105224;1287;73330;-71
2022/03/02 03:36:03;;;;;;;24.70;10.40;;;;;;;-3.09;71.78;101206.13;104559;1287;59684;-71
2022/03/02 03:38:52;;;;;;;26.00;11.20;;;;;;;-3.13;71.96;101204.39;104387;1287;59694;-71
2022/03/02 03:41:41;;;;;;;27.60;12.90;;;;;;;-3.19;71.80;101204.25;104790;1287;72372;-71
2022/03/02 03:44:30;;;;;;;24.80;10.50;;;;;;;-3.28;71.84;101208.25;104612;1287;1002824;-72
2022/03/02 03:47:20;;;;;;;30.60;12.50;;;;;;;-3.37;72.38;101202.37;105984;1287;72083;-71
2022/03/02 03:50:15;;;;;;;26.30;11.70;;;;;;;-3.39;72.62;101212.80;105939;1287;59594;-72
2022/03/02 03:53:05;;;;;;;27.10;11.60;;;;;;;-3.46;73.15;101205.34;106200;1287;58146;-71
2022/03/02 03:55:53;;;;;;;31.20;14.10;;;;;;;-3.50;73.43;101201.87;105909;1287;73339;-71
2022/03/02 03:58:42;;;;;;;33.40;14.60;;;;;;;-3.53;73.58;101198.92;105495;1286;68104;-74
2022/03/02 04:01:31;;;;;;;30.10;13.10;;;;;;;-3.54;73.55;101198.75;104942;1287;71801;-73
2022/03/02 04:04:20;;;;;;;30.20;12.80;;;;;;;-3.52;73.77;101199.80;104843;1287;59714;-72
2022/03/02 04:07:09;;;;;;;33.60;13.40;;;;;;;-3.52;73.88;101189.90;104546;1287;59586;-71
2022/03/02 04:09:59;;;;;;;30.70;12.80;;;;;;;-3.51;74.21;101180.70;104361;1288;73919;-71
2022/03/02 04:12:48;;;;;;;30.50;13.30;;;;;;;-3.50;74.18;101181.05;104128;1287;67426;-72
2022/03/02 04:15:38;;;;;;;30.50;12.70;;;;;;;-3.49;74.41;101177.92;103965;1287;73697;-72
2022/03/02 04:18:31;;;;;;;27.80;12.80;;;;;;;-3.48;74.19;101171.16;104209;1287;59716;-71
2022/03/02 04:21:23;;;;;;;32.70;13.10;;;;;;;-3.49;74.40;101168.38;103928;1287;61020;-71
2022/03/02 04:24:15;;;;;;;35.50;14.30;;;;;;;-3.50;74.38;101166.98;103724;1287;73028;-72
2022/03/02 04:27:05;;;;;;;34.60;15.80;;;;;;;-3.54;74.65;101170.48;103589;1287;68127;-71
2022/03/02 04:29:54;;;;;;;41.30;18.20;;;;;;;-3.59;74.82;101169.95;103572;1287;72731;-71
2022/03/02 04:32:44;;;;;;;39.90;17.10;;;;;;;-3.65;74.34;101168.41;103617;1288;59758;-71
2022/03/02 04:35:34;;;;;;;39.80;17.80;;;;;;;-3.73;74.85;101162.52;103109;1287;1003815;-72
2022/03/02 04:38:23;;;;;;;38.20;16.80;;;;;;;-3.81;75.10;101165.48;104413;1287;73738;-72
2022/03/02 04:41:12;;;;;;;40.20;16.70;;;;;;;-3.87;75.21;101166.52;103789;1287;67101;-71
2022/03/02 04:44:01;;;;;;;40.10;15.70;;;;;;;-3.93;75.30;101166.54;103618;1287;72992;-70
2022/03/02 04:46:51;;;;;;;35.00;16.10;;;;;;;-4.01;75.62;101160.63;103942;1287;59733;-73
2022/03/02 04:49:39;;;;;;;44.10;20.20;;;;;;;-4.02;76.04;101165.50;103744;1286;59691;-72
2022/03/02 04:52:28;;;;;;;53.40;21.90;;;;;;;-4.04;76.02;101160.11;103337;1288;73558;-71
2022/03/02 04:55:18;;;;;;;46.00;20.30;;;;;;;-4.04;76.21;101159.25;103283;1290;68841;-73
2022/03/02 04:58:07;;;;;;;44.70;18.90;;;;;;;-4.05;76.77;101158.21;103484;1288;71953;-72
2022/03/02 05:00:56;;;;;;;46.50;20.00;;;;;;;-4.07;76.74;101157.35;103411;1288;59716;-72
2022/03/02 05:03:44;;;;;;;44.30;19.50;;;;;;;-4.07;77.01;101150.06;103683;1288;59955;-75
2022/03/02 05:06:33;;;;;;;49.90;19.70;;;;;;;-4.07;77.03;101142.95;103453;1288;72292;-73
2022/03/02 05:09:22;;;;;;;47.60;20.20;;;;;;;-4.08;76.86;101142.60;103456;1288;66680;-74
2022/03/02 05:12:11;;;;;;;50.70;19.00;;;;;;;-4.11;77.43;101145.73;103807;1288;72977;-74
2022/03/02 05:15:04;;;;;;;44.20;19.30;;;;;;;-4.13;77.35;101146.23;102862;1288;1003133;-73
2022/03/02 05:17:58;;;;;;;47.10;19.80;;;;;;;-4.13;77.36;101140.00;103452;1291;60295;-73
2022/03/02 05:20:47;;;;;;;45.50;18.90;;;;;;;-4.14;77.46;101140.35;102729;1288;1002570;-73
2022/03/02 05:23:36;;;;;;;45.70;19.20;;;;;;;-4.18;77.57;101134.98;103661;1288;68341;-72
2022/03/02 05:26:28;;;;;;;53.40;21.40;;;;;;;-4.22;77.83;101129.08;102896;1287;1003349;-72
2022/03/02 05:29:17;;;;;;;45.20;18.30;;;;;;;-4.26;77.93;101127.70;103677;1287;59821;-72
2022/03/02 05:32:06;;;;;;;42.90;18.20;;;;;;;-4.28;78.20;101131.34;102800;1287;1003701;-74
2022/03/02 05:34:57;;;;;;;47.60;20.40;;;;;;;-4.30;77.97;101127.00;104135;1287;73468;-74
2022/03/02 05:37:57;;;;;;;56.00;22.70;;;;;;;-4.31;78.16;101128.21;103552;1287;68009;-73
2022/03/02 05:40:47;;;;;;;55.20;21.80;;;;;;;-4.29;78.33;101126.83;103974;1287;73038;-74
2022/03/02 05:43:36;;;;;;;50.90;22.10;;;;;;;-4.27;78.24;101126.31;103404;1288;59687;-72
2022/03/02 05:46:25;;;;;;;53.50;21.00;;;;;;;-4.23;78.76;101125.45;103536;1287;60601;-74
2022/03/02 05:49:18;;;;;;;50.80;21.50;;;;;;;-4.17;78.47;101122.67;103503;1287;73348;-73
2022/03/02 05:52:09;;;;;;;42.60;19.10;;;;;;;-4.11;78.56;101123.36;103559;1288;65661;-73
2022/03/02 05:54:57;;;;;;;45.70;18.40;;;;;;;-4.04;78.60;101130.30;103642;1288;71367;-74
2022/03/02 05:57:46;;;;;;;47.10;17.70;;;;;;;-4.01;78.50;101128.73;103475;1288;59809;-74
2022/03/02 06:00:36;;;;;;;45.50;20.20;;;;;;;-3.97;78.22;101127.86;102877;1287;1003460;-75
2022/03/02 06:03:25;;;;;;;43.30;19.50;;;;;;;-3.93;78.10;101125.44;103507;1288;72680;-73
2022/03/02 06:06:16;;;;;;;48.20;19.20;;;;;;;-3.87;77.92;101127.34;103620;1287;68477;-73
2022/03/02 06:09:08;;;;;;;43.50;19.00;;;;;;;-3.83;77.96;101122.98;103680;1287;73058;-72
2022/03/02 06:11:56;;;;;;;43.60;18.10;;;;;;;-3.78;77.94;101119.88;103558;1287;59752;-73
2022/03/02 06:14:46;;;;;;;44.50;18.20;;;;;;;-3.73;77.91;101119.34;103460;1288;61285;-72
2022/03/02 06:17:41;;;;;;;42.10;17.40;;;;;;;-3.70;77.95;101121.92;103555;1287;72549;-73
2022/03/02 06:20:33;;;;;;;43.40;17.90;;;;;;;-3.63;77.74;101122.95;103721;1287;67652;-73
2022/03/02 06:23:23;;;;;;;51.90;21.20;;;;;;;-3.58;77.67;101123.13;102738;1287;1003229;-72
2022/03/02 06:26:12;;;;;;;50.40;22.00;;;;;;;-3.51;77.60;101115.80;103735;1288;59796;-74
2022/03/02 06:29:01;;;;;;;49.30;21.40;;;;;;;-3.43;77.32;101116.65;102955;1288;1003810;-73
2022/03/02 06:31:50;;;;;;;50.70;22.10;;;;;;;-3.34;77.36;101114.38;103678;1287;72263;-72
2022/03/02 06:34:39;;;;;;;50.20;22.60;;;;;;;-3.25;77.25;101105.48;103487;1288;66788;-71
2022/03/02 06:37:33;;;;;;;52.00;22.80;;;;;;;-3.14;77.35;101104.73;103614;1288;70314;-72
2022/03/02 06:40:25;;;;;;;48.30;20.90;;;;;;;-3.05;77.21;101106.26;103387;1287;59688;-72
2022/03/02 06:43:24;;;;;;;50.40;22.30;;;;;;;-2.95;76.96;101110.55;103609;1288;59659;-72
2022/03/02 06:46:39;;;;;;;53.10;23.60;;;;;;;-2.84;76.68;101111.36;103833;1287;72031;-71
2022/03/02 06:50:06;;;;;;;49.10;22.60;;;;;;;-2.71;76.26;101103.80;103451;1288;1003606;-72
2022/03/02 06:53:01;;;;;;;54.10;22.40;;;;;;;-2.57;76.09;101099.72;103247;1286;1003852;-73
2022/03/02 06:55:55;;;;;;;43.30;19.20;;;;;;;-2.43;75.78;101101.71;103640;1287;59598;-72
2022/03/02 06:58:52;;;;;;;42.10;18.40;;;;;;;-2.30;75.31;101101.79;103563;1288;59619;-72
2022/03/02 07:01:43;;;;;;;41.70;18.70;;;;;;;-2.13;74.79;101100.60;103802;1286;72808;-72
2022/03/02 07:04:39;;;;;;;35.10;16.40;;;;;;;-1.96;74.22;101099.76;103603;1288;66388;-72
2022/03/02 07:07:30;;;;;;;35.50;16.00;;;;;;;-1.77;73.44;101093.83;103557;1288;72637;-72
2022/03/02 07:10:24;;;;;;;35.80;15.80;;;;;;;-1.53;72.90;101091.48;103662;1288;59792;-73
2022/03/02 07:13:16;;;;;;;32.90;16.00;;;;;;;-0.99;71.67;101086.45;103558;1288;59812;-73
2022/03/02 07:16:06;;;;;;;33.60;16.10;;;;;;;0.40;70.89;101083.11;103698;1287;73756;-74
2022/03/02 07:18:59;;;;;;;34.10;15.90;;;;;;;2.54;67.34;101073.83;103423;1287;68565;-74
2022/03/02 07:21:50;;;;;;;33.10;16.30;;;;;;;4.68;62.14;101065.33;103781;1287;71722;-75
2022/03/02 07:24:57;;;;;;;34.50;16.20;;;;;;;6.62;56.07;101060.07;103671;1288;59803;-75
2022/03/02 07:27:57;;;;;;;31.50;16.20;;;;;;;8.55;49.04;101053.27;103564;1288;61455;-75
2022/03/02 07:30:46;;;;;;;29.30;15.80;;;;;;;10.03;43.61;101055.05;103726;1287;72274;-76
2022/03/02 07:33:42;;;;;;;29.80;14.90;;;;;;;11.27;40.81;101039.23;103985;1287;68201;-78
2022/03/02 07:36:32;;;;;;;26.90;14.60;;;;;;;12.32;36.97;101033.89;103677;1287;73359;-78
2022/03/02 07:39:22;;;;;;;31.00;15.30;;;;;;;13.16;33.84;101030.53;103463;1288;59811;-74
2022/03/02 07:42:14;;;;;;;26.40;14.40;;;;;;;13.83;32.75;101028.33;103887;1288;59626;-78
2022/03/02 07:45:06;;;;;;;30.40;15.80;;;;;;;14.48;30.89;101027.42;103744;1287;73410;-75
2022/03/02 07:48:01;;;;;;;44.90;26.50;;;;;;;15.11;29.29;101019.33;103771;1288;68345;-76
2022/03/02 07:50:52;;;;;;;31.30;15.90;;;;;;;15.69;28.32;101011.87;103649;1288;72323;-76
2022/03/02 07:53:47;;;;;;;24.80;14.70;;;;;;;16.14;27.50;101001.83;103520;1288;59710;-78
2022/03/02 07:56:37;;;;;;;28.50;14.40;;;;;;;16.61;26.19;100994.86;103499;1288;60041;-77
2022/03/02 07:59:45;;;;;;;27.40;14.80;;;;;;;16.95;26.00;100991.36;103920;1287;72643;-76
2022/03/02 08:02:37;;;;;;;26.20;14.50;;;;;;;17.37;25.20;100994.57;103775;1287;68083;-77
2022/03/02 08:05:27;;;;;;;25.90;15.10;;;;;;;17.72;24.53;100994.25;103677;1287;72882;-77
2022/03/02 08:08:16;;;;;;;27.30;14.30;;;;;;;17.99;23.87;100994.80;103421;1287;59626;-77
2022/03/02 08:11:06;;;;;;;24.40;13.40;;;;;;;18.20;23.64;100994.92;103299;1287;60405;-76
2022/03/02 08:13:56;;;;;;;26.20;14.40;;;;;;;18.42;22.87;100992.13;103511;1290;72222;-76
2022/03/02 08:16:48;;;;;;;23.90;14.40;;;;;;;18.54;22.61;100991.54;103215;1287;67114;-76
2022/03/02 08:19:41;;;;;;;28.30;15.40;;;;;;;18.64;22.41;100991.30;103560;1288;71233;-76
2022/03/02 08:22:44;;;;;;;25.90;14.10;;;;;;;18.79;22.52;100989.08;103629;1288;60116;-77
2022/03/02 08:25:38;;;;;;;26.70;15.10;;;;;;;19.03;22.03;100980.46;103556;1288;61262;-76
2022/03/02 08:28:31;;;;;;;27.70;15.10;;;;;;;19.25;21.89;100973.21;103535;1287;71276;-76
2022/03/02 08:31:26;;;;;;;25.70;15.40;;;;;;;19.52;21.39;100972.13;103543;1287;67185;-77
2022/03/02 08:34:16;;;;;;;24.40;14.80;;;;;;;19.64;21.15;100976.02;103649;1288;72464;-77
2022/03/02 08:37:06;;;;;;;27.20;14.90;;;;;;;19.80;20.93;100974.20;103719;1287;59723;-77
2022/03/02 08:39:55;;;;;;;27.90;15.40;;;;;;;19.95;21.03;100971.27;103929;1287;59614;-77
2022/03/02 08:42:47;;;;;;;26.10;14.80;;;;;;;19.94;20.58;100969.77;103595;1287;73278;-76
2022/03/02 08:45:36;;;;;;;27.60;15.50;;;;;;;19.95;20.58;100965.48;103421;1287;66810;-75
2022/03/02 08:48:28;;;;;;;27.00;15.10;;;;;;;19.95;20.18;100955.40;103391;1288;72975;-77
2022/03/02 08:51:22;;;;;;;25.00;15.20;;;;;;;19.88;20.37;100944.58;103641;1287;59650;-77
2022/03/02 08:54:17;;;;;;;29.30;16.00;;;;;;;19.89;20.35;100947.73;103891;1288;60405;-78
2022/03/02 08:57:06;;;;;;;27.90;16.30;;;;;;;19.76;20.10;100951.74;103533;1287;72161;-76
2022/03/02 08:59:55;;;;;;;26.30;14.60;;;;;;;19.84;20.15;100946.27;103823;1288;66756;-77
2022/03/02 09:02:47;;;;;;;24.30;13.80;;;;;;;20.16;19.98;100951.83;103541;1288;73227;-77
2022/03/02 09:05:45;;;;;;;23.60;13.40;;;;;;;20.36;19.37;100950.75;103877;1287;59888;-78
2022/03/02 09:08:39;;;;;;;22.90;12.10;;;;;;;20.56;18.53;100949.27;103648;1286;59747;-75
2022/03/02 09:11:29;;;;;;;21.50;12.50;;;;;;;20.67;18.65;100947.14;103627;1287;73546;-77
2022/03/02 09:14:19;;;;;;;20.60;12.90;;;;;;;20.81;18.63;100946.92;103653;1287;68923;-77
2022/03/02 09:17:12;;;;;;;24.60;13.30;;;;;;;21.04;18.69;100943.97;103522;1288;70678;-78
2022/03/02 09:20:08;;;;;;;22.10;11.50;;;;;;;21.12;18.33;100941.70;103607;1288;59690;-76
2022/03/02 09:23:02;;;;;;;19.70;10.80;;;;;;;21.05;17.42;100938.58;103675;1288;59942;-78
2022/03/02 09:25:59;;;;;;;16.20;9.90;;;;;;;21.15;17.25;100937.21;103603;1287;71063;-77
2022/03/02 09:28:52;;;;;;;17.00;9.10;;;;;;;21.46;17.04;100938.98;103677;1288;68393;-78
2022/03/02 09:31:51;;;;;;;15.10;8.30;;;;;;;21.61;16.15;100929.60;103719;1286;71161;-77
2022/03/02 09:34:51;;;;;;;15.10;8.90;;;;;;;21.22;15.74;100923.81;103552;1288;59742;-77
2022/03/02 09:37:56;;;;;;;15.10;8.40;;;;;;;21.17;16.21;100919.09;103723;1287;60773;-76
2022/03/02 09:40:53;;;;;;;16.40;8.00;;;;;;;21.63;15.87;100916.05;103644;1287;72127;-78
2022/03/02 09:43:57;;;;;;;14.50;8.00;;;;;;;21.47;14.79;100910.83;103595;1287;67280;-77
2022/03/02 09:46:55;;;;;;;15.80;8.10;;;;;;;21.15;15.67;100903.08;103710;1287;72076;-76
2022/03/02 09:49:53;;;;;;;15.40;9.70;;;;;;;21.31;15.83;100900.10;103925;1287;59710;-76
2022/03/02 09:52:47;;;;;;;17.70;9.10;;;;;;;21.77;15.83;100899.54;103855;1287;60650;-77
2022/03/02 09:55:44;;;;;;;15.60;8.80;;;;;;;22.32;15.20;100895.89;103861;1288;73884;-78
2022/03/02 09:58:39;;;;;;;13.80;7.70;;;;;;;22.65;14.71;100898.98;104335;1287;68146;-78
2022/03/02 10:01:32;;;;;;;11.80;6.30;;;;;;;22.41;13.46;100900.29;103880;1287;73283;-77
2022/03/02 10:04:26;;;;;;;14.10;7.30;;;;;;;22.64;14.03;100892.56;103974;1288;59723;-76
2022/03/02 10:07:28;;;;;;;13.80;7.80;;;;;;;23.15;13.88;100888.20;103619;1288;60877;-75
2022/03/02 10:10:24;;;;;;;13.80;7.80;;;;;;;23.32;13.41;100879.23;103541;1288;73138;-77
2022/03/02 10:13:14;;;;;;;15.10;8.30;;;;;;;22.41;13.96;100884.48;103508;1288;67045;-78
2022/03/02 10:16:04;;;;;;;14.70;8.10;;;;;;;22.40;14.58;100886.46;103540;1287;73137;-77
2022/03/02 10:18:59;;;;;;;16.90;9.30;;;;;;;22.95;14.34;100878.95;103303;1287;59740;-76
2022/03/02 10:22:25;;;;;;;12.20;7.00;;;;;;;23.10;13.35;100879.21;103647;1286;59650;-76
2022/03/02 10:25:42;;;;;;;13.30;8.00;;;;;;;21.73;13.55;100885.30;103635;1287;73198;-76
2022/03/02 10:29:06;;;;;;;16.80;9.00;;;;;;;21.12;14.93;100885.39;103939;1288;68240;-76
2022/03/02 10:32:09;;;;;;;15.30;8.60;;;;;;;21.28;15.61;100877.09;103965;1288;71726;-76
2022/03/02 10:35:13;;;;;;;16.10;8.70;;;;;;;20.55;15.69;100878.73;103644;1287;60029;-77
2022/03/02 10:38:14;;;;;;;17.20;9.10;;;;;;;20.73;16.09;100884.68;103743;1287;60759;-76
2022/03/02 10:41:09;;;;;;;14.70;8.40;;;;;;;21.07;15.37;100884.43;103618;1287;73199;-76
2022/03/02 10:44:36;;;;;;;14.40;7.70;;;;;;;20.47;15.46;100868.52;103498;1288;67705;-77
2022/03/02 10:47:28;;;;;;;14.60;8.20;;;;;;;19.66;15.65;100867.79;103995;1287;73512;-78
2022/03/02 10:50:17;;;;;;;14.20;7.30;;;;;;;19.56;16.00;100871.94;103659;1287;59786;-76
2022/03/02 10:53:21;;;;;;;13.80;7.70;;;;;;;18.46;16.39;100870.52;103735;1287;59776;-76
2022/03/02 10:56:13;;;;;;;15.70;8.30;;;;;;;18.05;17.53;100865.46;103905;1288;72114;-76
2022/03/02 10:59:06;;;;;;;14.10;7.90;;;;;;;18.16;17.68;100858.86;103748;1288;67332;-77
2022/03/02 11:02:01;;;;;;;14.80;8.40;;;;;;;18.07;17.46;100852.74;103821;1287;72693;-76
2022/03/02 11:04:58;;;;;;;14.40;8.70;;;;;;;17.94;17.82;100855.73;103716;1288;59799;-74
2022/03/02 11:07:48;;;;;;;15.70;8.60;;;;;;;18.09;17.93;100854.65;103757;1288;60946;-77
2022/03/02 11:10:37;;;;;;;16.10;8.50;;;;;;;17.65;17.84;100847.04;103409;1288;494883;-77
2022/03/02 11:13:28;;;;;;;15.50;8.70;;;;;;;16.89;18.42;100849.91;103449;1288;69437;-76
2022/03/02 11:16:22;;;;;;;15.50;8.30;;;;;;;15.93;19.15;100843.59;103367;1288;71262;-76
2022/03/02 11:19:15;;;;;;;15.00;8.10;;;;;;;15.08;20.21;100843.39;103604;1288;59700;-75
2022/03/02 11:22:06;;;;;;;17.50;8.60;;;;;;;14.55;20.86;100839.92;103437;1287;62825;-75
2022/03/02 11:24:59;;;;;;;18.30;9.10;;;;;;;14.14;20.99;100839.81;103369;1287;73286;-76
2022/03/02 11:27:54;;;;;;;18.80;9.50;;;;;;;13.87;21.69;100835.88;103490;1288;68183;-76
2022/03/02 11:31:01;;;;;;;19.80;9.80;;;;;;;13.90;21.87;100824.73;103676;1287;71034;-76
2022/03/02 11:34:12;;;;;;;19.30;9.80;;;;;;;13.98;21.33;100822.55;103794;1288;59693;-75
2022/03/02 11:37:05;;;;;;;19.40;9.20;;;;;;;13.78;21.47;100824.35;103436;1287;60520;-75
2022/03/02 11:39:55;;;;;;;20.70;10.00;;;;;;;13.57;22.21;100825.38;103831;1288;72425;-76
2022/03/02 11:42:44;;;;;;;20.60;10.30;;;;;;;13.40;22.37;100828.67;103538;1287;67010;-76
2022/03/02 11:45:42;;;;;;;19.70;9.40;;;;;;;13.06;22.35;100830.58;103614;1288;72482;-76
2022/03/02 11:48:41;;;;;;;18.60;10.20;;;;;;;12.56;23.11;100823.93;103434;1288;59721;-75
2022/03/02 11:51:31;;;;;;;19.60;10.50;;;;;;;11.96;24.17;100812.45;103503;1287;59793;-75
2022/03/02 11:54:20;;;;;;;18.90;10.10;;;;;;;11.65;24.82;100817.80;103533;1287;71604;-74
2022/03/02 11:57:10;;;;;;;17.70;8.70;;;;;;;11.52;25.62;100815.12;103659;1288;68476;-75
2022/03/02 12:00:27;;;;;;;17.20;8.90;;;;;;;11.36;24.83;100813.72;103792;1287;73078;-75
2022/03/02 12:03:16;;;;;;;16.10;8.90;;;;;;;11.24;24.82;100815.11;103991;1287;60203;-74
2022/03/02 12:06:06;;;;;;;17.80;9.20;;;;;;;11.11;25.14;100808.54;103626;1288;59698;-74
2022/03/02 12:08:57;;;;;;;16.20;8.70;;;;;;;10.91;25.24;100805.06;103560;1287;73410;-74
2022/03/02 12:11:49;;;;;;;21.00;9.60;;;;;;;10.69;25.94;100800.35;103503;1287;66943;-74
2022/03/02 12:14:47;;;;;;;19.80;9.60;;;;;;;10.47;26.52;100801.95;103557;1288;72073;-75
2022/03/02 12:17:36;;;;;;;20.40;10.10;;;;;;;10.19;27.17;100805.65;103386;1287;59770;-75
2022/03/02 12:20:26;;;;;;;18.30;8.90;;;;;;;9.91;27.56;100808.17;103551;1287;60788;-76
2022/03/02 12:23:27;;;;;;;18.70;9.10;;;;;;;9.70;28.20;100805.02;103458;1288;72606;-75
2022/03/02 12:26:20;;;;;;;17.40;9.20;;;;;;;9.61;28.75;100800.28;103610;1287;67435;-74
2022/03/02 12:29:14;;;;;;;18.60;9.30;;;;;;;9.59;28.74;100795.98;103485;1287;72608;-75
2022/03/02 12:32:15;;;;;;;16.90;8.50;;;;;;;9.68;27.27;100788.68;103533;1287;59964;-75
2022/03/02 12:35:13;;;;;;;13.10;6.90;;;;;;;9.94;26.35;100789.70;103830;1288;60981;-74
2022/03/02 12:38:10;;;;;;;14.90;7.60;;;;;;;10.28;26.01;100787.55;103307;1288;72092;-74
2022/03/02 12:40:59;;;;;;;17.70;8.10;;;;;;;10.44;26.15;100781.20;103727;1288;66679;-75
2022/03/02 12:43:48;;;;;;;16.40;7.60;;;;;;;10.50;25.81;100777.84;103493;1288;73091;-75
2022/03/02 12:46:41;;;;;;;16.10;8.00;;;;;;;10.48;26.01;100770.33;103659;1287;59583;-75
2022/03/02 12:49:32;;;;;;;16.30;8.10;;;;;;;10.55;26.19;100763.09;103537;1287;60754;-74
2022/03/02 12:52:24;;;;;;;20.40;10.40;;;;;;;10.46;26.02;100762.45;103313;1287;73625;-73
2022/03/02 12:55:16;;;;;;;29.00;12.30;;;;;;;10.50;28.33;100759.67;103584;1287;67441;-74
2022/03/02 12:58:06;;;;;;;26.60;13.50;;;;;;;10.41;29.95;100757.28;103695;1290;72948;-74